sensor_id;sensor_type;location;lat;lon;timestamp;P1;durP1;ratioP1;P2;durP2;ratioP2
54745;SDS011;40640;48.130;11.356;2023-02-07T00:01:44;27.40;;;13.90;;
54745;SDS011;40640;48.130;11.356;2023-02-07T00:05:47;24.30;;;12.38;;
54745;SDS011;40640;48.130;11.356;2023-02-07T00:09:50;30.83;;;13.90;;
54745;SDS011;40640;48.130;11.356;2023-02-07T00:13:55;27.20;;;13.93;;
54745;SDS011;40640;48.130;11.356;2023-02-07T00:17:58;29.58;;;14.55;;
54745;SDS011;40640;48.130;11.356;2023-02-07T00:22:01;31.05;;;14.38;;
54745;SDS011;40640;48.130;11.356;2023-02-07T00:26:05;23.63;;;13.40;;
54745;SDS011;40640;48.130;11.356;2023-02-07T00:30:10;28.17;;;13.82;;
54745;SDS011;40640;48.130;11.356;2023-02-07T00:34:14;30.25;;;14.73;;
54745;SDS011;40640;48.130;11.356;2023-02-07T00:38:17;31.52;;;14.48;;
54745;SDS011;40640;48.130;11.356;2023-02-07T00:42:19;25.95;;;13.63;;
54745;SDS011;40640;48.130;11.356;2023-02-07T00:46:24;25.50;;;13.50;;
54745;SDS011;40640;48.130;11.356;2023-02-07T00:50:27;28.90;;;13.65;;
54745;SDS011;40640;48.130;11.356;2023-02-07T00:54:30;28.20;;;14.35;;
54745;SDS011;40640;48.130;11.356;2023-02-07T00:58:33;29.65;;;14.77;;
54745;SDS011;40640;48.130;11.356;2023-02-07T01:02:37;31.20;;;15.43;;
54745;SDS011;40640;48.130;11.356;2023-02-07T01:06:40;25.75;;;13.98;;
54745;SDS011;40640;48.130;11.356;2023-02-07T01:10:43;24.85;;;13.85;;
54745;SDS011;40640;48.130;11.356;2023-02-07T01:14:47;23.75;;;13.23;;
54745;SDS011;40640;48.130;11.356;2023-02-07T01:18:53;25.87;;;13.27;;
54745;SDS011;40640;48.130;11.356;2023-02-07T01:22:56;27.45;;;13.32;;
54745;SDS011;40640;48.130;11.356;2023-02-07T01:26:59;26.05;;;12.98;;
54745;SDS011;40640;48.130;11.356;2023-02-07T01:31:05;24.05;;;13.50;;
54745;SDS011;40640;48.130;11.356;2023-02-07T01:35:10;25.08;;;12.25;;
54745;SDS011;40640;48.130;11.356;2023-02-07T01:39:13;24.75;;;13.25;;
54745;SDS011;40640;48.130;11.356;2023-02-07T01:43:16;26.23;;;13.02;;
54745;SDS011;40640;48.130;11.356;2023-02-07T01:47:22;25.10;;;13.40;;
54745;SDS011;40640;48.130;11.356;2023-02-07T01:51:27;24.80;;;12.73;;
54745;SDS011;40640;48.130;11.356;2023-02-07T01:55:33;22.17;;;11.93;;
54745;SDS011;40640;48.130;11.356;2023-02-07T01:59:39;22.25;;;12.48;;
54745;SDS011;40640;48.130;11.356;2023-02-07T02:03:47;23.42;;;12.90;;
54745;SDS011;40640;48.130;11.356;2023-02-07T02:07:53;28.13;;;12.73;;
54745;SDS011;40640;48.130;11.356;2023-02-07T02:12:07;23.02;;;12.05;;
54745;SDS011;40640;48.130;11.356;2023-02-07T02:16:22;24.13;;;12.23;;
54745;SDS011;40640;48.130;11.356;2023-02-07T02:25:25;23.63;;;11.07;;
54745;SDS011;40640;48.130;11.356;2023-02-07T02:29:57;27.05;;;10.55;;
54745;SDS011;40640;48.130;11.356;2023-02-07T02:34:34;22.60;;;11.35;;
54745;SDS011;40640;48.130;11.356;2023-02-07T02:38:44;29.73;;;11.35;;
54745;SDS011;40640;48.130;11.356;2023-02-07T02:42:54;25.60;;;11.70;;
54745;SDS011;40640;48.130;11.356;2023-02-07T02:47:02;24.70;;;10.80;;
54745;SDS011;40640;48.130;11.356;2023-02-07T02:51:07;27.70;;;12.65;;
54745;SDS011;40640;48.130;11.356;2023-02-07T02:55:10;24.63;;;11.73;;
54745;SDS011;40640;48.130;11.356;2023-02-07T02:59:18;24.23;;;11.60;;
54745;SDS011;40640;48.130;11.356;2023-02-07T03:03:36;23.95;;;11.48;;
54745;SDS011;40640;48.130;11.356;2023-02-07T03:07:56;26.92;;;12.63;;
54745;SDS011;40640;48.130;11.356;2023-02-07T03:12:08;28.75;;;12.05;;
54745;SDS011;40640;48.130;11.356;2023-02-07T03:16:19;30.15;;;12.05;;
54745;SDS011;40640;48.130;11.356;2023-02-07T03:20:25;26.70;;;12.75;;
54745;SDS011;40640;48.130;11.356;2023-02-07T03:24:33;25.20;;;12.55;;
54745;SDS011;40640;48.130;11.356;2023-02-07T03:28:38;26.92;;;11.65;;
54745;SDS011;40640;48.130;11.356;2023-02-07T03:32:44;27.92;;;12.55;;
54745;SDS011;40640;48.130;11.356;2023-02-07T03:36:52;25.15;;;11.85;;
54745;SDS011;40640;48.130;11.356;2023-02-07T03:41:01;23.77;;;12.05;;
54745;SDS011;40640;48.130;11.356;2023-02-07T03:45:09;22.58;;;11.68;;
54745;SDS011;40640;48.130;11.356;2023-02-07T03:49:15;26.42;;;13.63;;
54745;SDS011;40640;48.130;11.356;2023-02-07T03:53:18;26.77;;;13.27;;
54745;SDS011;40640;48.130;11.356;2023-02-07T03:57:23;21.15;;;11.93;;
54745;SDS011;40640;48.130;11.356;2023-02-07T04:01:25;26.95;;;12.05;;
54745;SDS011;40640;48.130;11.356;2023-02-07T04:05:28;21.95;;;12.02;;
54745;SDS011;40640;48.130;11.356;2023-02-07T04:09:31;23.45;;;11.82;;
54745;SDS011;40640;48.130;11.356;2023-02-07T04:13:35;27.23;;;12.27;;
54745;SDS011;40640;48.130;11.356;2023-02-07T04:17:38;26.55;;;12.00;;
54745;SDS011;40640;48.130;11.356;2023-02-07T04:21:41;24.33;;;12.05;;
54745;SDS011;40640;48.130;11.356;2023-02-07T04:25:44;23.83;;;10.77;;
54745;SDS011;40640;48.130;11.356;2023-02-07T04:29:49;27.33;;;11.77;;
54745;SDS011;40640;48.130;11.356;2023-02-07T04:33:52;22.23;;;11.43;;
54745;SDS011;40640;48.130;11.356;2023-02-07T04:37:55;28.23;;;12.38;;
54745;SDS011;40640;48.130;11.356;2023-02-07T04:41:58;29.45;;;13.13;;
54745;SDS011;40640;48.130;11.356;2023-02-07T04:46:03;27.40;;;12.10;;
54745;SDS011;40640;48.130;11.356;2023-02-07T04:50:07;28.20;;;11.88;;
54745;SDS011;40640;48.130;11.356;2023-02-07T04:54:11;29.85;;;12.95;;
54745;SDS011;40640;48.130;11.356;2023-02-07T04:58:15;22.92;;;12.68;;
54745;SDS011;40640;48.130;11.356;2023-02-07T05:02:19;27.25;;;13.15;;
54745;SDS011;40640;48.130;11.356;2023-02-07T05:06:22;28.00;;;13.45;;
54745;SDS011;40640;48.130;11.356;2023-02-07T05:10:25;27.83;;;13.13;;
54745;SDS011;40640;48.130;11.356;2023-02-07T05:14:27;25.83;;;13.40;;
54745;SDS011;40640;48.130;11.356;2023-02-07T05:18:32;28.63;;;13.65;;
54745;SDS011;40640;48.130;11.356;2023-02-07T05:22:35;28.83;;;13.15;;
54745;SDS011;40640;48.130;11.356;2023-02-07T05:26:39;27.75;;;14.75;;
54745;SDS011;40640;48.130;11.356;2023-02-07T05:30:41;23.88;;;12.80;;
54745;SDS011;40640;48.130;11.356;2023-02-07T05:34:46;23.40;;;12.10;;
54745;SDS011;40640;48.130;11.356;2023-02-07T05:38:49;23.30;;;12.88;;
54745;SDS011;40640;48.130;11.356;2023-02-07T05:42:52;27.70;;;14.05;;
54745;SDS011;40640;48.130;11.356;2023-02-07T05:46:55;33.13;;;14.15;;
54745;SDS011;40640;48.130;11.356;2023-02-07T05:50:59;28.05;;;13.20;;
54745;SDS011;40640;48.130;11.356;2023-02-07T05:55:02;27.60;;;13.70;;
54745;SDS011;40640;48.130;11.356;2023-02-07T05:59:05;29.98;;;14.05;;
54745;SDS011;40640;48.130;11.356;2023-02-07T06:03:08;26.10;;;13.25;;
54745;SDS011;40640;48.130;11.356;2023-02-07T06:07:12;24.92;;;13.38;;
54745;SDS011;40640;48.130;11.356;2023-02-07T06:11:15;29.17;;;13.30;;
54745;SDS011;40640;48.130;11.356;2023-02-07T06:15:18;31.33;;;14.55;;
54745;SDS011;40640;48.130;11.356;2023-02-07T06:19:20;31.20;;;14.40;;
54745;SDS011;40640;48.130;11.356;2023-02-07T06:23:25;29.70;;;13.98;;
54745;SDS011;40640;48.130;11.356;2023-02-07T06:27:28;31.83;;;14.90;;
54745;SDS011;40640;48.130;11.356;2023-02-07T06:31:30;28.45;;;14.27;;
54745;SDS011;40640;48.130;11.356;2023-02-07T06:35:33;28.35;;;14.15;;
54745;SDS011;40640;48.130;11.356;2023-02-07T06:39:38;32.70;;;15.32;;
54745;SDS011;40640;48.130;11.356;2023-02-07T06:43:41;27.95;;;14.30;;
54745;SDS011;40640;48.130;11.356;2023-02-07T06:47:43;29.35;;;13.73;;
54745;SDS011;40640;48.130;11.356;2023-02-07T06:51:46;36.20;;;15.23;;
54745;SDS011;40640;48.130;11.356;2023-02-07T06:55:50;31.13;;;15.18;;
54745;SDS011;40640;48.130;11.356;2023-02-07T06:59:53;34.00;;;16.02;;
54745;SDS011;40640;48.130;11.356;2023-02-07T07:03:56;34.10;;;16.30;;
54745;SDS011;40640;48.130;11.356;2023-02-07T07:07:59;29.63;;;14.55;;
54745;SDS011;40640;48.130;11.356;2023-02-07T07:12:03;35.00;;;15.85;;
54745;SDS011;40640;48.130;11.356;2023-02-07T07:20:10;29.13;;;12.98;;
54745;SDS011;40640;48.130;11.356;2023-02-07T07:24:13;28.85;;;13.18;;
54745;SDS011;40640;48.130;11.356;2023-02-07T07:28:17;26.58;;;13.73;;
54745;SDS011;40640;48.130;11.356;2023-02-07T07:32:21;30.77;;;12.50;;
54745;SDS011;40640;48.130;11.356;2023-02-07T07:36:35;22.48;;;12.18;;
54745;SDS011;40640;48.130;11.356;2023-02-07T07:40:37;25.45;;;12.73;;
54745;SDS011;40640;48.130;11.356;2023-02-07T07:44:42;25.00;;;12.13;;
54745;SDS011;40640;48.130;11.356;2023-02-07T07:48:45;24.08;;;12.63;;
54745;SDS011;40640;48.130;11.356;2023-02-07T07:52:48;24.33;;;10.60;;
54745;SDS011;40640;48.130;11.356;2023-02-07T07:56:51;21.38;;;11.65;;
54745;SDS011;40640;48.130;11.356;2023-02-07T08:00:55;23.30;;;8.75;;
54745;SDS011;40640;48.130;11.356;2023-02-07T08:04:57;23.40;;;11.50;;
54745;SDS011;40640;48.130;11.356;2023-02-07T08:09:00;27.95;;;12.07;;
54745;SDS011;40640;48.130;11.356;2023-02-07T08:13:03;24.25;;;11.95;;
54745;SDS011;40640;48.130;11.356;2023-02-07T08:17:07;25.27;;;12.07;;
54745;SDS011;40640;48.130;11.356;2023-02-07T08:21:10;27.13;;;12.68;;
54745;SDS011;40640;48.130;11.356;2023-02-07T08:25:13;21.90;;;12.13;;
54745;SDS011;40640;48.130;11.356;2023-02-07T08:29:17;23.35;;;12.48;;
54745;SDS011;40640;48.130;11.356;2023-02-07T08:33:21;22.48;;;11.95;;
54745;SDS011;40640;48.130;11.356;2023-02-07T08:37:24;36.08;;;12.40;;
54745;SDS011;40640;48.130;11.356;2023-02-07T08:41:27;31.02;;;13.20;;
54745;SDS011;40640;48.130;11.356;2023-02-07T08:45:29;25.95;;;13.05;;
54745;SDS011;40640;48.130;11.356;2023-02-07T08:49:34;26.23;;;11.23;;
54745;SDS011;40640;48.130;11.356;2023-02-07T08:53:37;21.02;;;11.45;;
54745;SDS011;40640;48.130;11.356;2023-02-07T08:57:40;27.27;;;10.70;;
54745;SDS011;40640;48.130;11.356;2023-02-07T09:01:42;27.15;;;12.88;;
54745;SDS011;40640;48.130;11.356;2023-02-07T09:05:46;22.77;;;11.25;;
54745;SDS011;40640;48.130;11.356;2023-02-07T09:09:49;23.48;;;12.27;;
54745;SDS011;40640;48.130;11.356;2023-02-07T09:13:55;21.60;;;11.32;;
54745;SDS011;40640;48.130;11.356;2023-02-07T09:17:57;23.48;;;12.75;;
54745;SDS011;40640;48.130;11.356;2023-02-07T09:22:02;25.98;;;10.93;;
54745;SDS011;40640;48.130;11.356;2023-02-07T09:26:06;21.92;;;12.52;;
54745;SDS011;40640;48.130;11.356;2023-02-07T09:30:10;21.63;;;11.88;;
54745;SDS011;40640;48.130;11.356;2023-02-07T09:34:13;21.48;;;12.07;;
54745;SDS011;40640;48.130;11.356;2023-02-07T09:38:17;23.00;;;12.10;;
54745;SDS011;40640;48.130;11.356;2023-02-07T09:46:31;23.55;;;10.20;;
54745;SDS011;40640;48.130;11.356;2023-02-07T09:50:38;22.20;;;12.23;;
54745;SDS011;40640;48.130;11.356;2023-02-07T09:54:48;18.55;;;9.43;;
54745;SDS011;40640;48.130;11.356;2023-02-07T09:58:54;22.33;;;11.77;;
54745;SDS011;40640;48.130;11.356;2023-02-07T10:03:03;22.83;;;10.93;;
54745;SDS011;40640;48.130;11.356;2023-02-07T10:07:10;18.83;;;10.25;;
54745;SDS011;40640;48.130;11.356;2023-02-07T10:11:17;18.52;;;9.35;;
54745;SDS011;40640;48.130;11.356;2023-02-07T10:15:32;14.55;;;9.10;;
54745;SDS011;40640;48.130;11.356;2023-02-07T10:19:46;13.93;;;9.45;;
54745;SDS011;40640;48.130;11.356;2023-02-07T10:24:03;16.83;;;9.55;;
54745;SDS011;40640;48.130;11.356;2023-02-07T10:28:32;15.13;;;9.02;;
54745;SDS011;40640;48.130;11.356;2023-02-07T10:32:49;16.50;;;9.50;;
54745;SDS011;40640;48.130;11.356;2023-02-07T10:36:52;10.75;;;9.02;;
54745;SDS011;40640;48.130;11.356;2023-02-07T10:40:59;9.18;;;8.27;;
54745;SDS011;40640;48.130;11.356;2023-02-07T10:45:11;14.15;;;9.02;;
54745;SDS011;40640;48.130;11.356;2023-02-07T10:49:16;10.75;;;8.88;;
54745;SDS011;40640;48.130;11.356;2023-02-07T10:53:40;11.30;;;8.73;;
54745;SDS011;40640;48.130;11.356;2023-02-07T10:57:55;13.50;;;8.82;;
54745;SDS011;40640;48.130;11.356;2023-02-07T11:06:59;11.50;;;9.23;;
54745;SDS011;40640;48.130;11.356;2023-02-07T11:11:16;11.25;;;8.18;;
54745;SDS011;40640;48.130;11.356;2023-02-07T11:15:30;13.55;;;9.10;;
54745;SDS011;40640;48.130;11.356;2023-02-07T11:19:41;10.13;;;8.80;;
54745;SDS011;40640;48.130;11.356;2023-02-07T11:23:48;13.73;;;8.32;;
54745;SDS011;40640;48.130;11.356;2023-02-07T11:27:51;9.57;;;8.02;;
54745;SDS011;40640;48.130;11.356;2023-02-07T11:31:55;11.60;;;8.88;;
54745;SDS011;40640;48.130;11.356;2023-02-07T11:36:01;12.18;;;8.68;;
54745;SDS011;40640;48.130;11.356;2023-02-07T11:40:19;11.77;;;8.35;;
54745;SDS011;40640;48.130;11.356;2023-02-07T11:44:26;18.55;;;8.27;;
54745;SDS011;40640;48.130;11.356;2023-02-07T11:48:32;16.48;;;8.10;;
54745;SDS011;40640;48.130;11.356;2023-02-07T11:52:37;15.75;;;8.13;;
54745;SDS011;40640;48.130;11.356;2023-02-07T11:56:42;11.35;;;8.35;;
54745;SDS011;40640;48.130;11.356;2023-02-07T12:00:50;14.30;;;8.15;;
54745;SDS011;40640;48.130;11.356;2023-02-07T12:05:07;17.42;;;8.15;;
54745;SDS011;40640;48.130;11.356;2023-02-07T12:09:20;7.90;;;6.88;;
54745;SDS011;40640;48.130;11.356;2023-02-07T12:13:31;15.57;;;8.60;;
54745;SDS011;40640;48.130;11.356;2023-02-07T12:17:38;9.35;;;7.45;;
54745;SDS011;40640;48.130;11.356;2023-02-07T12:21:49;11.93;;;8.20;;
54745;SDS011;40640;48.130;11.356;2023-02-07T12:25:58;13.18;;;8.43;;
54745;SDS011;40640;48.130;11.356;2023-02-07T12:30:09;10.55;;;7.38;;
54745;SDS011;40640;48.130;11.356;2023-02-07T12:34:19;12.25;;;7.78;;
54745;SDS011;40640;48.130;11.356;2023-02-07T12:38:28;9.82;;;7.60;;
54745;SDS011;40640;48.130;11.356;2023-02-07T12:42:36;12.38;;;7.88;;
54745;SDS011;40640;48.130;11.356;2023-02-07T12:46:44;12.02;;;7.50;;
54745;SDS011;40640;48.130;11.356;2023-02-07T12:50:58;9.50;;;7.50;;
54745;SDS011;40640;48.130;11.356;2023-02-07T12:55:13;10.60;;;6.88;;
54745;SDS011;40640;48.130;11.356;2023-02-07T12:59:31;10.93;;;7.22;;
54745;SDS011;40640;48.130;11.356;2023-02-07T13:03:51;12.68;;;7.50;;
54745;SDS011;40640;48.130;11.356;2023-02-07T13:08:12;16.13;;;6.88;;
54745;SDS011;40640;48.130;11.356;2023-02-07T13:12:25;11.68;;;5.90;;
54745;SDS011;40640;48.130;11.356;2023-02-07T13:16:34;7.93;;;5.53;;
54745;SDS011;40640;48.130;11.356;2023-02-07T13:20:50;11.43;;;6.10;;
54745;SDS011;40640;48.130;11.356;2023-02-07T13:24:58;11.98;;;6.78;;
54745;SDS011;40640;48.130;11.356;2023-02-07T13:29:03;18.85;;;6.10;;
54745;SDS011;40640;48.130;11.356;2023-02-07T13:33:14;14.30;;;6.53;;
54745;SDS011;40640;48.130;11.356;2023-02-07T13:37:30;10.73;;;6.05;;
54745;SDS011;40640;48.130;11.356;2023-02-07T13:41:40;13.63;;;6.55;;
54745;SDS011;40640;48.130;11.356;2023-02-07T13:45:51;11.35;;;5.70;;
54745;SDS011;40640;48.130;11.356;2023-02-07T13:49:59;8.25;;;5.45;;
54745;SDS011;40640;48.130;11.356;2023-02-07T13:54:08;8.40;;;5.70;;
54745;SDS011;40640;48.130;11.356;2023-02-07T14:03:18;9.13;;;6.03;;
54745;SDS011;40640;48.130;11.356;2023-02-07T14:07:23;9.68;;;5.95;;
54745;SDS011;40640;48.130;11.356;2023-02-07T14:11:33;12.85;;;6.07;;
54745;SDS011;40640;48.130;11.356;2023-02-07T14:15:51;11.63;;;6.22;;
54745;SDS011;40640;48.130;11.356;2023-02-07T14:19:56;13.65;;;6.43;;
54745;SDS011;40640;48.130;11.356;2023-02-07T14:24:02;9.30;;;6.25;;
54745;SDS011;40640;48.130;11.356;2023-02-07T14:28:29;11.93;;;6.30;;
54745;SDS011;40640;48.130;11.356;2023-02-07T14:32:41;14.75;;;7.18;;
54745;SDS011;40640;48.130;11.356;2023-02-07T14:36:45;12.52;;;7.50;;
54745;SDS011;40640;48.130;11.356;2023-02-07T14:40:53;12.00;;;7.05;;
54745;SDS011;40640;48.130;11.356;2023-02-07T14:45:17;17.52;;;8.00;;
54745;SDS011;40640;48.130;11.356;2023-02-07T14:49:23;11.85;;;7.43;;
54745;SDS011;40640;48.130;11.356;2023-02-07T14:53:32;11.82;;;7.93;;
54745;SDS011;40640;48.130;11.356;2023-02-07T14:57:42;20.55;;;7.95;;
54745;SDS011;40640;48.130;11.356;2023-02-07T15:01:53;16.17;;;7.97;;
54745;SDS011;40640;48.130;11.356;2023-02-07T15:05:56;12.98;;;8.05;;
54745;SDS011;40640;48.130;11.356;2023-02-07T15:10:00;12.38;;;7.38;;
54745;SDS011;40640;48.130;11.356;2023-02-07T15:14:04;13.50;;;7.85;;
54745;SDS011;40640;48.130;11.356;2023-02-07T15:18:10;16.70;;;8.35;;
54745;SDS011;40640;48.130;11.356;2023-02-07T15:22:21;18.45;;;8.55;;
54745;SDS011;40640;48.130;11.356;2023-02-07T15:26:27;15.52;;;7.88;;
54745;SDS011;40640;48.130;11.356;2023-02-07T15:30:30;11.50;;;7.20;;
54745;SDS011;40640;48.130;11.356;2023-02-07T15:34:35;17.17;;;7.72;;
54745;SDS011;40640;48.130;11.356;2023-02-07T15:38:38;14.85;;;7.25;;
54745;SDS011;40640;48.130;11.356;2023-02-07T15:42:49;13.82;;;7.28;;
54745;SDS011;40640;48.130;11.356;2023-02-07T15:46:54;18.67;;;8.65;;
54745;SDS011;40640;48.130;11.356;2023-02-07T15:51:00;19.23;;;9.10;;
54745;SDS011;40640;48.130;11.356;2023-02-07T15:55:12;16.83;;;8.23;;
54745;SDS011;40640;48.130;11.356;2023-02-07T15:59:19;17.98;;;8.30;;
54745;SDS011;40640;48.130;11.356;2023-02-07T16:03:26;21.55;;;9.90;;
54745;SDS011;40640;48.130;11.356;2023-02-07T16:07:32;20.42;;;10.05;;
54745;SDS011;40640;48.130;11.356;2023-02-07T16:11:35;22.45;;;10.93;;
54745;SDS011;40640;48.130;11.356;2023-02-07T16:15:50;25.47;;;10.70;;
54745;SDS011;40640;48.130;11.356;2023-02-07T16:19:55;28.15;;;12.40;;
54745;SDS011;40640;48.130;11.356;2023-02-07T16:23:59;23.70;;;11.38;;
54745;SDS011;40640;48.130;11.356;2023-02-07T16:28:08;24.55;;;12.20;;
54745;SDS011;40640;48.130;11.356;2023-02-07T16:32:15;21.73;;;11.00;;
54745;SDS011;40640;48.130;11.356;2023-02-07T16:36:18;26.52;;;11.18;;
54745;SDS011;40640;48.130;11.356;2023-02-07T16:40:22;27.17;;;11.40;;
54745;SDS011;40640;48.130;11.356;2023-02-07T16:44:26;22.13;;;11.18;;
54745;SDS011;40640;48.130;11.356;2023-02-07T16:48:31;25.90;;;11.32;;
54745;SDS011;40640;48.130;11.356;2023-02-07T16:52:34;26.80;;;11.75;;
54745;SDS011;40640;48.130;11.356;2023-02-07T16:56:38;24.27;;;11.07;;
54745;SDS011;40640;48.130;11.356;2023-02-07T17:00:41;25.05;;;11.40;;
54745;SDS011;40640;48.130;11.356;2023-02-07T17:04:44;29.00;;;11.00;;
54745;SDS011;40640;48.130;11.356;2023-02-07T17:08:49;23.55;;;11.27;;
54745;SDS011;40640;48.130;11.356;2023-02-07T17:12:55;23.08;;;9.80;;
54745;SDS011;40640;48.130;11.356;2023-02-07T17:16:58;24.15;;;11.15;;
54745;SDS011;40640;48.130;11.356;2023-02-07T17:21:01;23.30;;;10.63;;
54745;SDS011;40640;48.130;11.356;2023-02-07T17:25:04;21.02;;;9.30;;
54745;SDS011;40640;48.130;11.356;2023-02-07T17:29:09;20.48;;;9.98;;
54745;SDS011;40640;48.130;11.356;2023-02-07T17:33:13;24.20;;;10.35;;
54745;SDS011;40640;48.130;11.356;2023-02-07T17:37:17;26.77;;;10.18;;
54745;SDS011;40640;48.130;11.356;2023-02-07T17:41:21;31.27;;;11.80;;
54745;SDS011;40640;48.130;11.356;2023-02-07T17:45:26;28.38;;;12.75;;
54745;SDS011;40640;48.130;11.356;2023-02-07T17:49:30;22.90;;;10.73;;
54745;SDS011;40640;48.130;11.356;2023-02-07T17:53:32;31.70;;;12.77;;
54745;SDS011;40640;48.130;11.356;2023-02-07T17:57:35;26.33;;;10.82;;
54745;SDS011;40640;48.130;11.356;2023-02-07T18:01:39;25.13;;;10.82;;
54745;SDS011;40640;48.130;11.356;2023-02-07T18:05:42;32.38;;;11.57;;
54745;SDS011;40640;48.130;11.356;2023-02-07T18:09:45;24.85;;;11.18;;
54745;SDS011;40640;48.130;11.356;2023-02-07T18:13:48;26.88;;;10.60;;
54745;SDS011;40640;48.130;11.356;2023-02-07T18:17:52;18.65;;;9.95;;
54745;SDS011;40640;48.130;11.356;2023-02-07T18:21:55;24.60;;;10.07;;
54745;SDS011;40640;48.130;11.356;2023-02-07T18:25:58;22.48;;;10.27;;
54745;SDS011;40640;48.130;11.356;2023-02-07T18:30:02;25.42;;;10.43;;
54745;SDS011;40640;48.130;11.356;2023-02-07T18:34:06;22.65;;;10.23;;
54745;SDS011;40640;48.130;11.356;2023-02-07T18:38:09;24.83;;;11.48;;
54745;SDS011;40640;48.130;11.356;2023-02-07T18:42:12;26.00;;;11.07;;
54745;SDS011;40640;48.130;11.356;2023-02-07T18:46:18;32.30;;;11.93;;
54745;SDS011;40640;48.130;11.356;2023-02-07T18:50:23;23.55;;;11.38;;
54745;SDS011;40640;48.130;11.356;2023-02-07T18:54:26;26.42;;;10.88;;
54745;SDS011;40640;48.130;11.356;2023-02-07T18:58:29;26.60;;;11.10;;
54745;SDS011;40640;48.130;11.356;2023-02-07T19:02:32;26.17;;;10.82;;
54745;SDS011;40640;48.130;11.356;2023-02-07T19:06:37;24.50;;;11.25;;
54745;SDS011;40640;48.130;11.356;2023-02-07T19:10:39;28.08;;;11.80;;
54745;SDS011;40640;48.130;11.356;2023-02-07T19:14:42;23.70;;;10.75;;
54745;SDS011;40640;48.130;11.356;2023-02-07T19:18:45;25.10;;;11.45;;
54745;SDS011;40640;48.130;11.356;2023-02-07T19:22:50;26.70;;;11.63;;
54745;SDS011;40640;48.130;11.356;2023-02-07T19:26:54;31.70;;;12.18;;
54745;SDS011;40640;48.130;11.356;2023-02-07T19:30:57;26.67;;;11.45;;
54745;SDS011;40640;48.130;11.356;2023-02-07T19:35:00;32.70;;;12.52;;
54745;SDS011;40640;48.130;11.356;2023-02-07T19:39:05;35.97;;;13.35;;
54745;SDS011;40640;48.130;11.356;2023-02-07T19:43:08;28.97;;;13.63;;
54745;SDS011;40640;48.130;11.356;2023-02-07T19:47:11;34.35;;;13.38;;
54745;SDS011;40640;48.130;11.356;2023-02-07T19:51:15;34.47;;;13.48;;
54745;SDS011;40640;48.130;11.356;2023-02-07T19:55:20;31.67;;;12.93;;
54745;SDS011;40640;48.130;11.356;2023-02-07T19:59:23;30.35;;;13.98;;
54745;SDS011;40640;48.130;11.356;2023-02-07T20:03:26;38.75;;;15.80;;
54745;SDS011;40640;48.130;11.356;2023-02-07T20:07:29;33.78;;;14.77;;
54745;SDS011;40640;48.130;11.356;2023-02-07T20:11:34;44.70;;;17.73;;
54745;SDS011;40640;48.130;11.356;2023-02-07T20:15:37;47.22;;;18.75;;
54745;SDS011;40640;48.130;11.356;2023-02-07T20:19:40;37.03;;;14.93;;
54745;SDS011;40640;48.130;11.356;2023-02-07T20:23:43;46.30;;;16.30;;
54745;SDS011;40640;48.130;11.356;2023-02-07T20:27:48;33.97;;;13.05;;
54745;SDS011;40640;48.130;11.356;2023-02-07T20:31:51;25.17;;;11.40;;
54745;SDS011;40640;48.130;11.356;2023-02-07T20:35:55;27.42;;;12.25;;
54745;SDS011;40640;48.130;11.356;2023-02-07T20:39:58;34.00;;;11.35;;
54745;SDS011;40640;48.130;11.356;2023-02-07T20:44:03;28.67;;;11.23;;
54745;SDS011;40640;48.130;11.356;2023-02-07T20:48:07;26.98;;;10.77;;
54745;SDS011;40640;48.130;11.356;2023-02-07T20:56:16;23.67;;;10.00;;
54745;SDS011;40640;48.130;11.356;2023-02-07T21:00:20;26.52;;;10.05;;
54745;SDS011;40640;48.130;11.356;2023-02-07T21:04:23;28.13;;;11.05;;
54745;SDS011;40640;48.130;11.356;2023-02-07T21:08:27;31.17;;;11.52;;
54745;SDS011;40640;48.130;11.356;2023-02-07T21:12:30;26.40;;;10.88;;
54745;SDS011;40640;48.130;11.356;2023-02-07T21:16:35;25.55;;;10.68;;
54745;SDS011;40640;48.130;11.356;2023-02-07T21:20:38;28.85;;;11.52;;
54745;SDS011;40640;48.130;11.356;2023-02-07T21:24:41;29.10;;;12.45;;
54745;SDS011;40640;48.130;11.356;2023-02-07T21:28:44;25.85;;;10.48;;
54745;SDS011;40640;48.130;11.356;2023-02-07T21:32:48;22.45;;;9.60;;
54745;SDS011;40640;48.130;11.356;2023-02-07T21:36:52;19.88;;;8.32;;
54745;SDS011;40640;48.130;11.356;2023-02-07T21:40:54;22.98;;;9.07;;
54745;SDS011;40640;48.130;11.356;2023-02-07T21:44:57;21.25;;;9.02;;
54745;SDS011;40640;48.130;11.356;2023-02-07T21:49:03;20.67;;;8.50;;
54745;SDS011;40640;48.130;11.356;2023-02-07T21:53:07;25.77;;;9.13;;
54745;SDS011;40640;48.130;11.356;2023-02-07T21:57:10;22.00;;;8.85;;
54745;SDS011;40640;48.130;11.356;2023-02-07T22:01:14;22.42;;;8.68;;
54745;SDS011;40640;48.130;11.356;2023-02-07T22:05:19;20.55;;;8.32;;
54745;SDS011;40640;48.130;11.356;2023-02-07T22:09:22;22.98;;;8.27;;
54745;SDS011;40640;48.130;11.356;2023-02-07T22:13:25;18.40;;;9.05;;
54745;SDS011;40640;48.130;11.356;2023-02-07T22:17:27;24.90;;;9.60;;
54745;SDS011;40640;48.130;11.356;2023-02-07T22:21:32;27.35;;;9.88;;
54745;SDS011;40640;48.130;11.356;2023-02-07T22:29:40;27.23;;;9.68;;
54745;SDS011;40640;48.130;11.356;2023-02-07T22:33:43;27.23;;;9.85;;
54745;SDS011;40640;48.130;11.356;2023-02-07T22:37:47;22.17;;;8.85;;
54745;SDS011;40640;48.130;11.356;2023-02-07T22:41:52;23.45;;;10.35;;
54745;SDS011;40640;48.130;11.356;2023-02-07T22:45:56;35.13;;;9.65;;
54745;SDS011;40640;48.130;11.356;2023-02-07T22:50:03;23.85;;;9.98;;
54745;SDS011;40640;48.130;11.356;2023-02-07T22:54:09;25.60;;;10.20;;
54745;SDS011;40640;48.130;11.356;2023-02-07T22:58:15;27.95;;;10.52;;
54745;SDS011;40640;48.130;11.356;2023-02-07T23:02:18;22.20;;;9.15;;
54745;SDS011;40640;48.130;11.356;2023-02-07T23:06:21;25.40;;;10.13;;
54745;SDS011;40640;48.130;11.356;2023-02-07T23:10:26;26.77;;;9.63;;
54745;SDS011;40640;48.130;11.356;2023-02-07T23:14:29;26.05;;;10.60;;
54745;SDS011;40640;48.130;11.356;2023-02-07T23:18:32;25.23;;;9.85;;
54745;SDS011;40640;48.130;11.356;2023-02-07T23:22:35;25.25;;;10.27;;
54745;SDS011;40640;48.130;11.356;2023-02-07T23:26:39;25.35;;;10.52;;
54745;SDS011;40640;48.130;11.356;2023-02-07T23:30:42;26.38;;;9.90;;
54745;SDS011;40640;48.130;11.356;2023-02-07T23:34:45;23.08;;;9.73;;
54745;SDS011;40640;48.130;11.356;2023-02-07T23:38:48;25.45;;;10.55;;
54745;SDS011;40640;48.130;11.356;2023-02-07T23:42:53;25.50;;;10.40;;
54745;SDS011;40640;48.130;11.356;2023-02-07T23:46:56;30.23;;;10.32;;
54745;SDS011;40640;48.130;11.356;2023-02-07T23:50:59;22.85;;;9.43;;
54745;SDS011;40640;48.130;11.356;2023-02-07T23:55:03;27.10;;;9.60;;
54745;SDS011;40640;48.130;11.356;2023-02-07T23:59:08;26.23;;;9.82;;
